Time;durP1;ratioP1;P1;durP2;ratioP2;P2;SDS_P1;SDS_P2;PMS_P1;PMS_P2;Temp;Humidity;BMP_temperature;BMP_pressure;BME280_temperature;BME280_humidity;BME280_pressure;Samples;Min_cycle;Max_cycle;Signal;HPM_P1;HPM_P2
2022/08/10 00:00:26;;;;;;;17.65;7.60;;;13.10;99.90;;;12.14;100.00;102465.47;4992955;28;20064;-80
2022/08/10 00:02:55;;;;;;;15.48;7.53;;;13.20;99.90;;;12.21;100.00;102476.75;4972499;28;20041;-79
2022/08/10 00:05:22;;;;;;;21.55;6.75;;;13.20;99.90;;;12.26;100.00;102478.34;4980399;28;20383;-78
2022/08/10 00:07:49;;;;;;;17.00;7.30;;;13.30;99.90;;;12.30;100.00;102473.88;5019518;28;20034;-79
2022/08/10 00:10:18;;;;;;;11.30;7.20;;;13.30;99.90;;;12.32;100.00;102472.91;4951841;28;20056;-79
2022/08/10 00:12:46;;;;;;;15.95;6.57;;;13.30;99.90;;;12.29;100.00;102478.28;4986939;28;20026;-79
2022/08/10 00:15:15;;;;;;;16.10;6.63;;;13.20;99.90;;;12.19;100.00;102476.78;4986585;28;20037;-78
2022/08/10 00:17:41;;;;;;;15.02;6.90;;;13.20;99.90;;;12.13;100.00;102481.34;4992531;28;20035;-78
2022/08/10 00:20:09;;;;;;;11.57;5.45;;;13.20;99.90;;;12.11;100.00;102478.75;4974660;28;20048;-77
2022/08/10 00:22:34;;;;;;;10.25;5.13;;;13.20;99.90;;;12.12;100.00;102472.56;4995451;28;20037;-79
2022/08/10 00:25:01;;;;;;;16.95;7.30;;;13.20;99.90;;;12.17;100.00;102472.44;4986467;28;20034;-80
2022/08/10 00:27:28;;;;;;;15.77;7.00;;;13.20;99.90;;;12.18;100.00;102476.81;4963987;28;20904;-76
2022/08/10 00:29:55;;;;;;;15.40;7.30;;;13.20;99.90;;;12.24;100.00;102469.59;4990149;28;20053;-79
2022/08/10 00:32:21;;;;;;;20.20;8.00;;;13.30;99.90;;;12.34;100.00;102474.66;4997244;28;20490;-77
2022/08/10 00:34:47;;;;;;;18.20;8.57;;;13.40;99.90;;;12.46;100.00;102466.41;4964269;28;20041;-77
2022/08/10 00:37:16;;;;;;;16.63;8.18;;;13.50;99.90;;;12.56;100.00;102472.31;4995494;28;20070;-79
2022/08/10 00:39:43;;;;;;;18.50;8.55;;;13.60;99.90;;;12.62;100.00;102474.78;4977246;28;20038;-79
2022/08/10 00:42:11;;;;;;;16.90;9.32;;;13.60;99.90;;;12.66;100.00;102463.22;4950214;28;20058;-79
2022/08/10 00:44:40;;;;;;;16.75;8.63;;;13.70;99.90;;;12.72;100.00;102457.75;4972621;28;20033;-78
2022/08/10 00:47:08;;;;;;;19.15;8.93;;;13.70;99.90;;;12.71;100.00;102456.91;5014724;28;20048;-81
2022/08/10 00:49:34;;;;;;;20.10;8.93;;;13.70;99.90;;;12.73;100.00;102459.50;4983197;28;20489;-80
2022/08/10 00:52:01;;;;;;;16.30;9.23;;;13.70;99.90;;;12.74;100.00;102461.22;4975758;28;20045;-78
2022/08/10 00:54:28;;;;;;;14.25;8.70;;;13.70;99.90;;;12.69;100.00;102448.13;4984974;28;20110;-78
2022/08/10 00:56:54;;;;;;;15.68;7.43;;;13.70;99.90;;;12.59;100.00;102453.72;4978316;28;20038;-79
2022/08/10 00:59:20;;;;;;;11.60;7.00;;;13.50;99.90;;;12.35;100.00;102452.63;4959424;28;20121;-77
2022/08/10 01:01:46;;;;;;;;;;;13.30;99.90;;;12.10;100.00;102454.13;4993476;28;20039;-80
2022/08/10 01:04:14;;;;;;;13.88;7.07;;;13.20;99.90;;;12.06;100.00;102457.75;4994834;28;19921;-80
2022/08/10 01:07:30;;;;;;;11.98;6.43;;;13.10;99.90;;;11.95;100.00;102451.88;4983680;28;20042;-77
2022/08/10 01:10:41;;;;;;;46.47;7.20;;;13.00;99.90;;;11.84;100.00;102461.81;5008702;28;20041;-80
2022/08/10 01:13:40;;;;;;;22.00;8.73;;;12.90;99.90;;;11.70;100.00;102463.00;4991902;28;20435;-77
2022/08/10 01:16:24;;;;;;;12.82;7.05;;;12.80;99.90;;;11.65;100.00;102456.94;4983672;28;20030;-80
2022/08/10 01:19:03;;;;;;;11.93;6.93;;;12.70;99.90;;;11.60;100.00;102461.47;4992330;28;20034;-79
2022/08/10 01:22:25;;;;;;;14.70;6.50;;;12.70;99.90;;;11.54;100.00;102450.19;4992091;28;20046;-78
2022/08/10 01:25:30;;;;;;;10.52;6.75;;;12.60;99.90;;;11.41;100.00;102452.25;4992786;28;20102;-77
2022/08/10 01:28:46;;;;;;;8.68;5.63;;;12.50;99.90;;;11.24;100.00;102452.63;4996253;28;20040;-79
2022/08/10 01:31:19;;;;;;;12.32;4.82;;;12.40;99.90;;;11.15;100.00;102451.03;4996042;28;20111;-80
2022/08/10 01:33:56;;;;;;;12.73;6.22;;;12.30;99.90;;;11.15;100.00;102453.69;4995797;28;20109;-78
2022/08/10 01:37:03;;;;;;;9.00;5.50;;;12.30;99.90;;;11.10;100.00;102463.47;4974268;28;20026;-79
2022/08/10 01:39:38;;;;;;;11.75;5.57;;;12.20;99.90;;;11.05;100.00;102460.91;4984326;28;20038;-78
2022/08/10 01:42:10;;;;;;;20.75;6.95;;;12.20;99.90;;;11.01;100.00;102456.59;4988890;28;20557;-80
2022/08/10 01:44:44;;;;;;;17.45;8.30;;;12.10;99.90;;;11.00;100.00;102462.78;4987763;28;20113;-80
2022/08/10 01:50:16;;;;;;;17.38;6.65;;;12.10;99.90;;;10.97;100.00;102462.84;4957575;28;20129;-81
2022/08/10 01:52:44;;;;;;;15.25;7.30;;;12.00;99.90;;;10.96;100.00;102465.50;4983822;28;20047;-80
2022/08/10 01:55:12;;;;;;;13.65;7.47;;;12.00;99.90;;;10.95;100.00;102458.50;4975991;28;20042;-77
2022/08/10 01:57:41;;;;;;;14.77;6.20;;;12.10;99.90;;;10.98;100.00;102458.44;4960697;28;20491;-79
2022/08/10 02:00:08;;;;;;;14.13;8.23;;;12.10;99.90;;;11.02;100.00;102454.84;4972000;28;20065;-79
2022/08/10 02:02:36;;;;;;;18.27;9.13;;;12.10;99.90;;;11.08;100.00;102455.59;4980146;28;20041;-81
2022/08/10 02:05:05;;;;;;;16.92;9.55;;;12.20;99.90;;;11.17;100.00;102448.38;4975964;28;20049;-81
2022/08/10 02:07:33;;;;;;;23.52;11.05;;;12.30;99.90;;;11.25;100.00;102451.69;4999761;28;20137;-78
2022/08/10 02:10:05;;;;;;;16.08;9.00;;;12.30;99.90;;;11.28;100.00;102457.78;4975687;28;20094;-79
2022/08/10 02:12:34;;;;;;;14.90;8.55;;;12.30;99.90;;;11.29;100.00;102456.91;4983663;28;20111;-78
2022/08/10 02:15:14;;;;;;;14.73;7.18;;;12.30;99.90;;;11.29;100.00;102453.38;4969493;28;20036;-78
2022/08/10 02:17:47;;;;;;;18.35;8.65;;;12.30;99.90;;;11.27;100.00;102456.06;4987789;28;20529;-77
2022/08/10 02:20:21;;;;;;;16.88;7.78;;;12.30;99.90;;;11.27;100.00;102455.16;4975694;28;20243;-80
2022/08/10 02:22:58;;;;;;;13.30;7.97;;;12.30;99.90;;;11.28;100.00;102459.56;4954633;28;20049;-78
2022/08/10 02:25:26;;;;;;;19.40;7.93;;;12.40;99.90;;;11.28;100.00;102452.50;4988079;28;20128;-78
2022/08/10 02:27:59;;;;;;;11.23;7.72;;;12.40;99.90;;;11.31;100.00;102453.34;4961882;28;21427;-80
2022/08/10 02:30:27;;;;;;;18.88;8.85;;;12.40;99.90;;;11.32;100.00;102453.31;4972432;28;20142;-78
2022/08/10 02:32:55;;;;;;;17.63;8.65;;;12.40;99.90;;;11.33;100.00;102460.31;4969978;28;20045;-81
2022/08/10 02:35:26;;;;;;;13.52;8.43;;;12.40;99.90;;;11.35;100.00;102465.56;4972234;28;20034;-78
2022/08/10 02:37:58;;;;;;;18.42;8.15;;;12.40;99.90;;;11.34;100.00;102469.97;4960689;28;20534;-78
2022/08/10 02:40:31;;;;;;;12.05;7.15;;;12.40;99.90;;;11.33;100.00;102467.38;4958397;28;20069;-81
2022/08/10 02:43:05;;;;;;;16.23;7.50;;;12.40;99.90;;;11.32;100.00;102466.50;4997966;23;20036;-80
2022/08/10 02:46:06;;;;;;;14.70;7.60;;;12.40;99.90;;;11.31;100.00;102471.81;5003209;28;20037;-78
2022/08/10 02:48:50;;;;;;;19.00;8.57;;;12.40;99.90;;;11.25;100.00;102468.41;4977886;28;20037;-78
2022/08/10 02:51:25;;;;;;;15.38;7.10;;;12.40;99.90;;;11.29;100.00;102469.19;4983644;28;20042;-80
2022/08/10 02:54:00;;;;;;;12.75;6.40;;;12.40;99.90;;;11.34;100.00;102474.38;5011159;28;20031;-79
2022/08/10 02:56:37;;;;;;;17.85;8.50;;;12.40;99.90;;;11.35;100.00;102468.19;4985053;28;20028;-80
2022/08/10 02:59:21;;;;;;;18.63;8.45;;;12.40;99.90;;;11.35;100.00;102470.84;5006945;28;20056;-78
2022/08/10 03:01:56;;;;;;;19.83;7.68;;;12.40;99.90;;;11.30;100.00;102476.22;5029415;22;20044;-79
2022/08/10 03:04:45;;;;;;;12.00;7.87;;;12.30;99.90;;;11.27;100.00;102465.72;4991419;28;20052;-78
2022/08/10 03:07:16;;;;;;;19.50;8.52;;;12.40;99.90;;;11.25;100.00;102470.16;4993064;28;20315;-77
2022/08/10 03:09:44;;;;;;;11.07;6.20;;;12.30;99.90;;;11.23;100.00;102474.59;4994842;28;20049;-79
2022/08/10 03:12:13;;;;;;;11.63;6.20;;;12.30;99.90;;;11.27;100.00;102478.91;5005081;28;20030;-79
2022/08/10 03:14:40;;;;;;;11.55;5.95;;;12.40;99.90;;;11.26;100.00;102472.78;4945101;28;20107;-76
2022/08/10 03:17:09;;;;;;;18.20;9.02;;;12.30;99.90;;;11.30;100.00;102478.84;4977878;28;20042;-80
2022/08/10 03:19:46;;;;;;;21.50;9.93;;;12.40;99.90;;;11.33;100.00;102475.28;4968381;28;20030;-78
2022/08/10 03:22:13;;;;;;;19.42;9.15;;;12.40;99.90;;;11.36;100.00;102467.28;4954321;28;20330;-77
2022/08/10 03:24:42;;;;;;;16.40;8.77;;;12.40;99.90;;;11.37;100.00;102467.25;4971119;28;20033;-77
2022/08/10 03:27:11;;;;;;;17.60;7.97;;;12.50;99.90;;;11.40;100.00;102472.50;4967459;28;20048;-80
2022/08/10 03:29:38;;;;;;;20.48;9.25;;;12.50;99.90;;;11.45;100.00;102473.25;4966407;28;21429;-77
2022/08/10 03:32:06;;;;;;;16.02;8.20;;;12.60;99.90;;;11.49;100.00;102472.28;4972712;28;20044;-78
2022/08/10 03:34:37;;;;;;;19.23;8.07;;;12.60;99.90;;;11.48;100.00;102474.94;4999048;28;20029;-77
2022/08/10 03:37:04;;;;;;;22.58;8.13;;;12.50;99.90;;;11.46;100.00;102476.75;4966865;28;20033;-80
2022/08/10 03:39:30;;;;;;;18.40;8.43;;;12.50;99.90;;;11.42;100.00;102467.16;4947944;28;20128;-77
2022/08/10 03:42:04;;;;;;;20.10;7.93;;;12.50;99.90;;;11.41;100.00;102479.47;4978436;23;20053;-80
2022/08/10 03:44:32;;;;;;;21.58;8.98;;;12.50;99.90;;;11.39;100.00;102470.75;4985224;28;20045;-77
2022/08/10 03:47:11;;;;;;;17.08;7.28;;;12.40;99.90;;;11.37;100.00;102476.94;4974172;28;20121;-79
2022/08/10 03:49:38;;;;;;;20.90;7.80;;;12.40;99.90;;;11.33;100.00;102473.50;5009406;28;20494;-81
2022/08/10 03:52:15;;;;;;;16.48;7.05;;;12.40;99.90;;;11.30;100.00;102478.84;4995480;28;20040;-79
2022/08/10 03:54:42;;;;;;;14.80;8.00;;;12.30;99.90;;;11.31;100.00;102479.72;4967096;28;20063;-78
2022/08/10 03:57:09;;;;;;;16.95;8.52;;;12.40;99.90;;;11.34;100.00;102483.16;4989283;28;20507;-77
2022/08/10 03:59:35;;;;;;;17.40;9.38;;;12.40;99.90;;;11.39;100.00;102480.44;5039101;28;20052;-78
2022/08/10 04:02:07;;;;;;;21.85;9.45;;;12.40;99.90;;;11.50;100.00;102488.97;4987320;28;20071;-79
2022/08/10 04:04:33;;;;;;;16.55;7.60;;;12.50;99.90;;;11.58;100.00;102489.66;4988574;28;20031;-79
2022/08/10 04:07:00;;;;;;;17.08;8.30;;;12.60;99.90;;;11.68;100.00;102480.63;4975341;28;20124;-77
2022/08/10 04:09:46;;;;;;;23.60;10.85;;;12.70;99.90;;;11.81;100.00;102481.19;5014396;28;20052;-80
2022/08/10 04:12:15;;;;;;;28.08;11.52;;;12.80;99.90;;;11.90;100.00;102488.94;4957619;28;20408;-80
2022/08/10 04:14:41;;;;;;;18.42;10.93;;;12.90;99.90;;;12.03;100.00;102491.25;4987271;28;20036;-77
2022/08/10 04:17:07;;;;;;;24.08;11.57;;;13.00;99.90;;;12.13;100.00;102487.50;5002799;28;20187;-78
2022/08/10 04:19:43;;;;;;;29.23;11.05;;;;;;;12.30;100.00;102493.22;4998099;28;20112;-79
2022/08/10 04:22:22;;;;;;;20.55;10.60;;;13.20;99.90;;;12.46;100.00;102500.75;5027142;22;20037;-78
2022/08/10 04:25:04;;;;;;;23.48;12.35;;;13.40;99.90;;;12.82;100.00;102504.19;4994057;28;20027;-79
2022/08/10 04:27:31;;;;;;;23.25;12.25;;;14.10;99.90;;;13.90;100.00;102511.59;4994282;28;20034;-77
2022/08/10 04:29:57;;;;;;;22.52;10.45;;;15.30;99.90;;;15.57;100.00;102518.94;4975601;28;20045;-80
2022/08/10 04:32:36;;;;;;;20.52;8.70;;;16.60;99.90;;;17.01;100.00;102524.47;4951932;28;20037;-80
2022/08/10 04:35:09;;;;;;;15.40;7.88;;;18.10;99.90;;;19.12;90.32;102532.78;4951856;28;20036;-81
2022/08/10 04:37:36;;;;;;;13.02;6.57;;;19.70;99.90;;;21.25;77.11;102538.19;4973964;28;20499;-82
2022/08/10 04:40:04;;;;;;;12.50;5.82;;;21.10;99.90;;;23.10;68.45;102549.09;5009669;28;20040;-81
2022/08/10 04:42:30;;;;;;;9.27;5.15;;;22.50;99.90;;;24.72;61.58;102554.16;4997910;28;20032;-79
2022/08/10 04:45:10;;;;;;;8.43;4.03;;;23.80;99.90;;;26.31;56.75;102558.38;4979534;28;20245;-80
2022/08/10 04:47:41;;;;;;;10.20;4.10;;;24.80;99.90;;;26.96;53.78;102564.50;4986863;28;22387;-80
2022/08/10 04:50:07;;;;;;;9.82;4.68;;;24.70;99.90;;;25.44;56.76;102557.50;4982580;28;20763;-82
2022/08/10 04:52:33;;;;;;;12.07;4.78;;;24.40;99.90;;;24.50;58.94;102570.28;4990089;28;20113;-80
2022/08/10 04:54:59;;;;;;;6.97;4.85;;;23.70;99.90;;;23.47;62.06;102569.78;4972706;28;20045;-79
2022/08/10 04:57:27;;;;;;;12.93;4.93;;;23.70;99.90;;;24.90;59.79;102569.84;4978644;28;20056;-82
2022/08/10 04:59:58;;;;;;;7.35;4.60;;;24.40;99.90;;;26.86;54.86;102577.09;4952622;28;20115;-81
2022/08/10 05:02:24;;;;;;;9.45;4.20;;;25.20;99.90;;;28.12;51.58;102575.81;4935910;28;20398;-80
2022/08/10 05:04:50;;;;;;;8.35;3.67;;;26.10;99.90;;;29.26;49.11;102567.78;4984409;28;20055;-79
2022/08/10 05:07:16;;;;;;;9.02;3.95;;;26.80;99.70;;;30.26;47.05;102574.97;4978738;28;20593;-80
2022/08/10 05:09:43;;;;;;;10.00;3.97;;;;;;;30.97;45.82;102584.88;4979004;28;20041;-79
2022/08/10 05:12:18;;;;;;;11.20;3.47;;;27.70;97.90;;;30.22;46.11;102581.75;5017605;28;20036;-79
2022/08/10 05:14:47;;;;;;;10.43;3.70;;;27.90;97.20;;;30.54;46.83;102591.19;4961407;28;20085;-81
2022/08/10 05:17:23;;;;;;;8.75;3.53;;;28.30;97.40;;;31.27;45.05;102593.50;4951430;28;20044;-79
2022/08/10 05:19:49;;;;;;;14.43;3.70;;;28.40;96.90;;;31.20;45.71;102606.91;4980879;28;20484;-79
2022/08/10 05:22:15;;;;;;;5.70;3.38;;;28.70;96.70;;;31.76;45.05;102609.22;4974206;28;20510;-81
2022/08/10 05:24:48;;;;;;;8.80;3.55;;;28.90;96.90;;;31.78;44.73;102612.63;5020960;28;20034;-79
2022/08/10 05:27:14;;;;;;;9.23;4.20;;;28.90;96.20;;;31.05;45.81;102612.09;4999581;28;20551;-81
2022/08/10 05:29:40;;;;;;;10.10;4.00;;;28.60;96.90;;;29.86;48.16;102603.44;4987033;28;20127;-79
2022/08/10 05:32:06;;;;;;;;;;;28.50;97.20;;;28.96;49.89;102610.38;4984798;28;20036;-80
2022/08/10 05:34:36;;;;;;;8.60;3.38;;;27.80;98.10;;;29.70;49.19;102614.13;5009092;28;19925;-80
2022/08/10 05:37:04;;;;;;;14.23;4.00;;;27.90;98.10;;;30.27;48.13;102617.44;4975154;28;20046;-79
2022/08/10 05:39:32;;;;;;;10.77;3.67;;;27.90;98.30;;;29.78;49.28;102606.91;4989203;28;20041;-83
2022/08/10 05:42:07;;;;;;;10.35;3.40;;;27.90;98.40;;;29.98;48.66;102607.66;4985599;28;20033;-81
2022/08/10 05:44:34;;;;;;;8.32;3.25;;;27.90;98.00;;;31.18;46.50;102628.00;4991185;28;20040;-80
2022/08/10 05:46:59;;;;;;;8.35;3.35;;;28.50;98.20;;;32.31;44.54;102624.13;4982372;28;20029;-80
2022/08/10 05:49:25;;;;;;;6.75;3.00;;;29.10;97.20;;;33.32;43.04;102618.19;4984284;28;20037;-82
2022/08/10 05:52:01;;;;;;;8.38;3.05;;;29.60;96.90;;;33.13;43.14;102613.16;4948696;28;20427;-79
2022/08/10 05:54:27;;;;;;;8.63;3.20;;;30.00;96.80;;;33.08;43.37;102616.41;4953483;28;20036;-81
2022/08/10 05:56:53;;;;;;;12.75;2.78;;;30.20;96.10;;;33.33;43.17;102624.50;4945260;28;20040;-80
2022/08/10 05:59:32;;;;;;;8.80;3.05;;;30.60;95.80;;;34.54;41.47;102623.97;4985200;28;20115;-79
2022/08/10 06:02:05;;;;;;;8.10;2.63;;;30.80;94.90;;;33.91;41.71;102617.78;5001484;28;20037;-80
2022/08/10 06:04:50;;;;;;;8.18;2.67;;;30.70;94.20;;;32.46;43.81;102617.84;4979435;28;20025;-79
2022/08/10 06:07:18;;;;;;;7.53;2.65;;;30.10;95.00;;;31.04;46.82;102620.47;4991227;28;20217;-80
2022/08/10 06:10:05;;;;;;;8.45;2.42;;;29.70;95.60;;;30.90;46.67;102612.88;4984219;28;20041;-82
2022/08/10 06:12:36;;;;;;;5.00;2.40;;;29.60;96.30;;;32.24;45.49;102616.63;4991889;28;20040;-83
2022/08/10 06:15:03;;;;;;;10.05;2.40;;;30.40;96.40;;;34.65;41.75;102609.00;4944470;28;20037;-79
2022/08/10 06:17:36;;;;;;;6.97;2.50;;;;;;;35.97;39.87;102614.56;4983085;28;20057;-83
2022/08/10 06:20:02;;;;;;;5.28;2.47;;;32.50;94.10;;;36.76;38.46;102616.31;4966233;28;20036;-80
2022/08/10 06:22:31;;;;;;;6.70;2.10;;;33.50;93.10;;;37.84;36.86;102618.56;4948043;28;20113;-80
2022/08/10 06:25:04;;;;;;;7.57;2.17;;;34.40;91.30;;;38.37;36.12;102618.66;4993422;28;20036;-80
2022/08/10 06:27:30;;;;;;;9.85;2.25;;;35.00;90.10;;;38.25;35.99;102628.59;4993365;28;20044;-80
2022/08/10 06:29:58;;;;;;;5.28;1.90;;;35.20;87.10;;;37.58;36.20;102638.56;4987010;28;20044;-80
2022/08/10 06:32:30;;;;;;;4.60;1.45;;;35.10;86.40;;;36.94;36.84;102633.16;4966798;28;20829;-80
2022/08/10 06:34:59;;;;;;;5.05;1.58;;;35.30;85.10;;;37.24;36.22;102637.56;4964309;28;20041;-81
2022/08/10 06:37:28;;;;;;;6.20;1.55;;;35.60;84.50;;;37.85;34.91;102640.34;4921732;28;20053;-80
2022/08/10 06:39:59;;;;;;;5.15;1.67;;;36.10;81.90;;;38.10;34.55;102640.66;4989011;28;20097;-82
2022/08/10 06:42:56;;;;;;;7.88;1.48;;;35.80;81.10;;;37.09;34.00;102638.53;4953260;28;20102;-81
2022/08/10 06:45:52;;;;;;;5.72;1.60;;;35.70;81.50;;;36.92;34.78;102643.47;4958377;28;20094;-80
2022/08/10 06:48:52;;;;;;;4.15;1.42;;;35.30;81.90;;;36.18;35.12;102638.44;4950131;28;20033;-80
2022/08/10 06:51:41;;;;;;;2.80;1.00;;;35.70;80.10;;;36.69;33.96;102640.97;4917022;28;20046;-80
2022/08/10 06:54:13;;;;;;;5.18;1.60;;;;;;;37.41;33.80;102638.06;4867649;29;20047;-82
2022/08/10 06:57:08;;;;;;;7.70;1.58;;;;;;;36.89;34.51;102638.41;4856525;28;20031;-80
2022/08/10 06:59:50;;;;;;;5.05;1.05;;;;;;;36.30;33.99;102638.75;4871093;28;20078;-80
2022/08/10 07:02:37;;;;;;;6.72;1.20;;;;;;;37.46;32.49;102641.88;4899002;28;20051;-82
2022/08/10 07:05:34;;;;;;;4.60;1.20;;;35.90;73.10;;;35.77;33.78;102629.94;5000610;28;20043;-79
2022/08/10 07:08:01;;;;;;;4.95;1.15;;;36.00;74.90;;;36.61;33.66;102634.78;4976464;28;20206;-84
2022/08/10 07:10:31;;;;;;;5.63;1.40;;;36.10;76.50;;;36.73;33.56;102636.78;4962865;28;20579;-80
2022/08/10 07:13:21;;;;;;;2.92;1.30;;;35.40;75.50;;;35.18;34.44;102628.97;4937893;28;20069;-79
2022/08/10 07:15:50;;;;;;;3.25;1.30;;;35.60;75.40;;;35.89;34.52;102633.88;4946533;28;20063;-82
2022/08/10 07:18:44;;;;;;;3.78;1.13;;;35.60;75.40;;;36.31;34.93;102643.19;5000812;28;20033;-81
2022/08/10 07:21:18;;;;;;;4.35;1.10;;;35.80;74.60;;;35.72;34.67;102630.50;4915603;28;20055;-80
2022/08/10 07:24:12;;;;;;;5.60;1.25;;;36.00;74.80;;;36.32;34.58;102642.97;4943422;28;20048;-82
2022/08/10 07:26:47;;;;;;;7.60;1.45;;;36.40;74.00;;;36.80;33.27;102638.75;4956210;28;20049;-81
2022/08/10 07:29:26;;;;;;;3.53;1.02;;;36.80;72.50;;;37.03;32.24;102638.47;4928787;28;20038;-80
2022/08/10 07:32:05;;;;;;;2.58;1.10;;;37.10;70.80;;;37.35;31.23;102637.81;4956111;28;20448;-81
2022/08/10 07:34:40;;;;;;;4.85;1.13;;;36.70;70.50;;;36.20;32.68;102630.00;4971690;28;20638;-79
2022/08/10 07:37:11;;;;;;;3.30;1.23;;;;;;;36.73;32.84;102636.78;4979206;28;21959;-81
2022/08/10 07:39:50;;;;;;;3.03;1.10;;;37.10;70.50;;;37.01;31.18;102648.81;4972645;28;20526;-81
2022/08/10 07:42:28;;;;;;;7.60;1.40;;;36.70;68.50;;;35.51;32.98;102639.53;4973678;28;20491;-82
2022/08/10 07:45:04;;;;;;;5.82;1.45;;;35.90;69.20;;;34.44;34.88;102629.66;4944647;28;20045;-81
2022/08/10 07:47:41;;;;;;;8.40;1.27;;;35.20;72.20;;;34.18;35.62;102629.22;4944464;28;20177;-79
2022/08/10 07:50:13;;;;;;;2.67;0.90;;;;;;;34.65;34.90;102637.22;4954555;28;20073;-82
2022/08/10 07:52:50;;;;;;;7.13;1.23;;;35.50;73.00;;;35.49;33.86;102628.75;4972732;28;20034;-79
2022/08/10 07:55:32;;;;;;;2.33;1.17;;;35.60;69.90;;;35.15;33.09;102621.16;4968110;28;20107;-82
2022/08/10 07:58:08;;;;;;;3.30;1.00;;;;;;;34.83;33.52;102617.69;4958707;28;20051;-79
2022/08/10 08:00:38;;;;;;;4.05;1.20;;;;;;;34.48;34.39;102611.88;5011842;28;20124;-80
2022/08/10 08:03:14;;;;;;;5.20;1.10;;;35.20;72.10;;;34.70;34.37;102614.75;5001789;28;20041;-80
2022/08/10 08:05:40;;;;;;;3.60;1.25;;;35.20;71.20;;;34.57;33.42;102606.31;5017489;28;20029;-80
2022/08/10 08:08:17;;;;;;;4.65;1.40;;;35.00;71.80;;;34.45;34.70;102604.03;4941271;28;20780;-80
2022/08/10 08:10:45;;;;;;;8.18;1.15;;;;;;;33.61;35.08;102611.28;4963974;28;20057;-80
2022/08/10 08:13:15;;;;;;;2.20;0.70;;;34.50;71.50;;;33.91;34.55;102602.22;5010240;28;20115;-79
2022/08/10 08:15:44;;;;;;;2.42;1.00;;;34.20;70.80;;;33.36;34.94;102591.41;5012418;28;20041;-81
2022/08/10 08:18:11;;;;;;;4.90;0.98;;;34.10;73.50;;;33.40;35.16;102590.88;5000363;28;20099;-79
2022/08/10 08:20:38;;;;;;;5.10;0.98;;;33.70;72.20;;;32.81;35.90;102588.50;4974704;28;20083;-81
2022/08/10 08:23:57;;;;;;;3.35;0.90;;;33.40;73.50;;;32.55;36.45;102596.03;5016343;28;20064;-80
2022/08/10 08:26:24;;;;;;;2.80;0.90;;;33.10;72.30;;;32.24;36.20;102591.25;5005671;28;20527;-80
2022/08/10 08:28:51;;;;;;;2.45;0.90;;;33.10;74.90;;;32.82;36.53;102592.91;5003343;28;20049;-81
2022/08/10 08:31:20;;;;;;;3.03;0.93;;;32.80;73.00;;;32.21;36.85;102581.53;4980274;28;20040;-81
2022/08/10 08:33:50;;;;;;;2.70;1.05;;;32.90;75.60;;;32.42;36.88;102585.59;5001576;28;20033;-81
2022/08/10 08:36:18;;;;;;;4.22;1.08;;;32.70;74.60;;;32.15;36.53;102578.66;4997788;28;20033;-79
2022/08/10 08:38:46;;;;;;;2.97;1.08;;;32.00;73.70;;;30.69;38.26;102575.16;4994432;28;20036;-80
2022/08/10 08:41:30;;;;;;;7.10;1.10;;;31.30;75.40;;;30.19;38.66;102571.16;4976049;28;20124;-81
2022/08/10 08:44:25;;;;;;;3.85;0.80;;;31.10;76.60;;;30.59;38.00;102572.53;5006145;28;20041;-82
2022/08/10 08:47:10;;;;;;;3.25;0.88;;;30.50;77.60;;;29.92;40.25;102575.69;4972654;28;20826;-80
2022/08/10 08:49:48;;;;;;;2.85;1.10;;;30.50;80.70;;;30.38;39.73;102576.44;4980974;28;20036;-79
2022/08/10 08:52:40;;;;;;;5.13;1.10;;;30.30;80.40;;;29.89;40.92;102570.53;4975329;28;20035;-79
2022/08/10 08:55:47;;;;;;;5.55;1.05;;;29.90;81.50;;;28.92;42.28;102555.63;5008515;28;20084;-79
2022/08/10 08:58:27;;;;;;;3.55;0.90;;;29.40;80.70;;;28.20;43.26;102557.84;5002980;28;20042;-78
2022/08/10 09:01:01;;;;;;;4.95;0.88;;;29.00;84.80;;;28.26;44.42;102547.47;5005753;28;20049;-79
2022/08/10 09:04:15;;;;;;;2.47;0.82;;;28.70;82.50;;;27.13;45.08;102546.78;4969008;28;20045;-81
2022/08/10 09:07:14;;;;;;;6.25;1.00;;;28.50;84.30;;;27.65;45.79;102548.53;5027009;28;20451;-78
2022/08/10 09:10:03;;;;;;;4.53;0.85;;;28.20;84.70;;;27.33;45.27;102545.03;5035733;28;20533;-79
2022/08/10 09:12:37;;;;;;;2.20;1.00;;;28.00;83.70;;;26.72;45.37;102537.78;5012822;28;20044;-80
2022/08/10 09:15:48;;;;;;;2.55;1.05;;;27.50;84.50;;;26.09;46.54;102536.88;5011660;28;20033;-78
2022/08/10 09:19:02;;;;;;;2.17;1.00;;;27.30;86.10;;;26.43;47.42;102544.81;4989238;28;20046;-78
2022/08/10 09:22:00;;;;;;;2.90;0.90;;;27.30;85.90;;;26.64;45.24;102550.25;5002138;28;20495;-81
2022/08/10 09:25:03;;;;;;;3.40;0.93;;;27.30;85.20;;;26.54;45.76;102540.22;4984953;28;20072;-79
2022/08/10 09:27:47;;;;;;;3.85;0.90;;;27.20;86.50;;;26.52;46.43;102538.59;4987105;28;20068;-78
2022/08/10 09:30:29;;;;;;;2.33;0.80;;;27.00;85.80;;;26.40;46.61;102525.19;5004237;28;20032;-77
2022/08/10 09:33:10;;;;;;;3.00;0.73;;;27.10;86.80;;;26.38;46.69;102521.75;5029281;28;20030;-79
2022/08/10 09:36:20;;;;;;;2.08;0.80;;;27.20;85.40;;;26.38;46.49;102521.75;4997450;28;20144;-80
2022/08/10 09:39:34;;;;;;;5.60;1.10;;;27.10;86.50;;;26.62;46.19;102519.81;4933219;28;20043;-79
2022/08/10 09:42:24;;;;;;;2.15;0.80;;;27.30;87.50;;;26.82;47.12;102524.31;4936273;28;20043;-77
2022/08/10 09:45:24;;;;;;;2.60;0.90;;;27.40;84.60;;;26.99;46.11;102514.72;5028112;28;20115;-77
2022/08/10 09:48:02;;;;;;;1.75;0.93;;;;;;;26.80;46.17;102510.06;4993223;28;20064;-79
2022/08/10 09:50:55;;;;;;;3.83;1.00;;;27.50;86.00;;;26.93;46.03;102510.72;5015849;28;20124;-77
2022/08/10 09:54:07;;;;;;;2.00;0.88;;;27.50;88.40;;;26.94;46.80;102508.88;5012765;28;20410;-77
2022/08/10 09:57:40;;;;;;;2.50;0.82;;;27.60;86.80;;;26.63;46.20;102499.88;5013566;28;20029;-77
2022/08/10 10:00:13;;;;;;;3.35;0.80;;;27.60;84.20;;;26.78;45.71;102507.53;4936815;28;20069;-80
2022/08/10 10:03:18;;;;;;;2.40;0.75;;;27.50;85.50;;;26.65;44.97;102498.75;4989548;28;20112;-81
2022/08/10 10:06:15;;;;;;;1.20;0.60;;;27.40;84.50;;;26.62;45.55;102490.94;4991147;28;20084;-80
2022/08/10 10:09:19;;;;;;;2.40;0.60;;;27.50;85.30;;;26.95;45.37;102497.06;5007415;28;20506;-78
2022/08/10 10:12:19;;;;;;;1.10;0.55;;;27.70;85.00;;;27.04;43.47;102496.25;5015694;28;20038;-79
2022/08/10 10:15:25;;;;;;;3.17;1.02;;;27.70;83.80;;;27.05;43.31;102481.72;5006801;28;20037;-78
2022/08/10 10:18:40;;;;;;;1.25;0.70;;;27.60;83.30;;;27.00;43.73;102481.31;5019134;28;20073;-77
2022/08/10 10:21:55;;;;;;;2.08;0.80;;;27.60;82.90;;;26.96;43.76;102491.53;5009643;28;20045;-78
2022/08/10 10:24:54;;;;;;;2.65;0.82;;;27.50;82.60;;;26.59;44.08;102492.06;5006911;28;20121;-78
2022/08/10 10:27:39;;;;;;;3.17;0.90;;;27.30;81.00;;;26.45;44.33;102488.81;5007706;28;20049;-77
2022/08/10 10:30:12;;;;;;;2.15;0.70;;;27.10;82.90;;;26.22;45.21;102485.38;5017474;28;20636;-80
2022/08/10 10:32:56;;;;;;;3.50;0.75;;;27.00;84.00;;;26.35;45.36;102480.63;5012051;28;20026;-80
2022/08/10 10:35:53;;;;;;;3.38;0.70;;;27.30;89.40;;;26.84;45.28;102492.59;5009115;28;20029;-78
2022/08/10 10:38:40;;;;;;;2.97;0.60;;;27.00;83.40;;;26.02;45.21;102482.56;5019711;28;20030;-79
2022/08/10 10:41:30;;;;;;;4.93;0.70;;;27.00;82.60;;;26.46;44.34;102474.31;5041281;28;20045;-78
2022/08/10 10:44:22;;;;;;;2.50;0.80;;;27.30;85.60;;;26.83;44.36;102473.84;5039450;28;20043;-78
2022/08/10 10:47:08;;;;;;;2.70;0.90;;;27.50;85.10;;;27.17;43.72;102474.34;5018001;28;20068;-79
2022/08/10 10:50:11;;;;;;;3.88;0.70;;;27.70;82.70;;;27.20;44.39;102479.50;4978252;28;20417;-78
2022/08/10 10:52:49;;;;;;;2.53;0.65;;;27.70;82.90;;;26.93;43.65;102472.88;5013779;28;20169;-79
2022/08/10 10:55:52;;;;;;;1.80;0.80;;;27.70;83.70;;;27.11;44.37;102470.38;5017989;28;20044;-80